KIAD/IAD METAR and TAF weather

Enter ICAO airport designator
Station Type Date Time Source
KIAD METAR 2018/12/11 21:52 UTC NOAA

KIAD 112152Z 20007KT 10SM CLR 02/M06 A3002 RMK AO2 SLP169 T00221056


Station Type Date Time Source
KIAD Decoded METAR 2018/12/11 21:52 UTC NOAA

DULLES INTERNATIONAL AIRPORT, VA, United States (KIAD) 38-56N 077-27W 93M
Dec 11, 2018 - 04:52 PM EST / 2018.12.11 2152 UTC
Wind: from the SSW (200 degrees) at 8 MPH (7 KT):0
Visibility: 10 mile(s):0
Sky conditions: clear
Temperature: 36.0 F (2.2 C)
Dew Point: 21.9 F (-5.6 C)
Relative Humidity: 56%
Pressure (altimeter): 30.02 in. Hg (1016 hPa)
ob: KIAD 112152Z 20007KT 10SM CLR 02/M06 A3002 RMK AO2 SLP169 T00221056
cycle: 22

Station Type Date Time Source
KIAD TAF 2018/12/11 21:42 UTC NOAA

TAF
AMD KIAD 112041Z 1121/1224 VRB04KT P6SM SKC
FM121300 29005KT P6SM FEW250
FM121900 36004KT P6SM SCT150
FM122300 VRB04KT P6SM SCT130


Example: see airport list